createdAt,value
2023-01-25T00:00:28.487Z,16.02
2023-01-25T00:05:28.703Z,13.70
2023-01-25T00:10:27.485Z,14.07
2023-01-25T00:15:26.263Z,14.63
2023-01-25T00:20:25.077Z,13.55
2023-01-25T00:25:25.227Z,15.50
2023-01-25T00:30:23.913Z,14.68
2023-01-25T00:35:24.623Z,15.07
2023-01-25T00:40:24.669Z,15.05
2023-01-25T00:45:23.644Z,14.25
2023-01-25T00:50:22.414Z,16.95
2023-01-25T00:55:21.112Z,15.15
2023-01-25T01:00:22.541Z,13.20
2023-01-25T01:05:21.540Z,14.68
2023-01-25T01:10:22.882Z,15.45
2023-01-25T01:15:24.855Z,12.93
2023-01-25T01:20:23.912Z,16.50
2023-01-25T01:25:24.309Z,18.13
2023-01-25T01:30:25.910Z,14.98
2023-01-25T01:35:24.678Z,12.55
2023-01-25T01:40:25.084Z,13.63
2023-01-25T01:45:52.200Z,14.27
2023-01-25T01:51:01.752Z,12.80
2023-01-25T01:56:03.886Z,13.30
2023-01-25T02:01:04.345Z,14.30
2023-01-25T02:06:06.535Z,13.75
2023-01-25T02:11:06.344Z,12.60
2023-01-25T02:16:11.997Z,16.02
2023-01-25T02:21:12.118Z,14.75
2023-01-25T02:26:12.598Z,14.60
2023-01-25T02:31:11.537Z,16.35
2023-01-25T02:36:23.414Z,18.92
2023-01-25T02:41:28.319Z,15.43
2023-01-25T02:46:31.881Z,18.10
2023-01-25T02:51:33.148Z,16.60
2023-01-25T02:56:34.237Z,17.42
2023-01-25T03:01:34.356Z,15.85
2023-01-25T03:06:34.621Z,17.45
2023-01-25T03:11:35.495Z,16.38
2023-01-25T03:16:34.468Z,18.52
2023-01-25T03:21:34.426Z,19.92
2023-01-25T03:26:55.429Z,19.27
2023-01-25T03:31:59.129Z,20.30
2023-01-25T03:36:58.158Z,20.00
2023-01-25T03:41:58.743Z,21.70
2023-01-25T03:46:57.817Z,24.57
2023-01-25T03:51:58.126Z,20.98
2023-01-25T03:57:08.631Z,21.30
2023-01-25T04:02:17.039Z,19.95
2023-01-25T04:07:15.875Z,18.90
2023-01-25T04:12:16.642Z,20.35
2023-01-25T04:17:15.819Z,20.75
2023-01-25T04:22:34.938Z,22.65
2023-01-25T04:27:36.812Z,21.85
2023-01-25T04:32:40.387Z,23.42
2023-01-25T04:38:00.819Z,22.80
2023-01-25T04:43:08.845Z,22.75
2023-01-25T04:48:09.993Z,23.65
2023-01-25T04:53:12.997Z,26.45
2023-01-25T04:58:13.534Z,20.87
2023-01-25T05:03:13.367Z,23.55
2023-01-25T05:08:13.201Z,21.30
2023-01-25T05:13:13.503Z,24.40
2023-01-25T05:18:12.550Z,25.95
2023-01-25T05:23:11.632Z,24.35
2023-01-25T05:28:11.030Z,23.40
2023-01-25T05:33:49.678Z,26.05
2023-01-25T05:38:50.373Z,25.75
2023-01-25T05:43:50.296Z,31.58
2023-01-25T05:48:51.149Z,24.77
2023-01-25T05:53:50.760Z,35.40
2023-01-25T05:58:54.403Z,21.85
2023-01-25T06:03:55.179Z,26.38
2023-01-25T06:08:56.397Z,24.43
2023-01-25T06:13:55.300Z,27.65
2023-01-25T06:18:55.426Z,32.53
2023-01-25T06:24:16.894Z,33.47
2023-01-25T06:29:15.820Z,35.25
2023-01-25T06:34:17.098Z,34.08
2023-01-25T06:39:16.044Z,34.90
2023-01-25T06:44:14.724Z,33.90
2023-01-25T06:49:13.466Z,30.60
2023-01-25T06:54:13.553Z,25.48
2023-01-25T06:59:12.265Z,29.20
2023-01-25T07:04:12.420Z,31.17
2023-01-25T07:09:14.905Z,26.70
2023-01-25T07:14:13.619Z,29.98
2023-01-25T07:19:14.165Z,31.77
2023-01-25T07:24:21.162Z,31.33
2023-01-25T07:29:20.271Z,38.25
2023-01-25T07:34:19.078Z,34.70
2023-01-25T07:39:19.234Z,30.60
2023-01-25T07:44:18.007Z,27.70
2023-01-25T07:49:21.225Z,27.90
2023-01-25T07:54:21.572Z,32.95
2023-01-25T07:59:20.380Z,38.45
2023-01-25T08:04:19.378Z,37.05
2023-01-25T08:09:20.674Z,35.15
2023-01-25T08:14:20.988Z,34.05
2023-01-25T08:19:20.398Z,32.30
2023-01-25T08:24:20.834Z,32.25
2023-01-25T08:29:21.233Z,30.10
2023-01-25T08:34:19.990Z,32.88
2023-01-25T08:39:19.015Z,33.25
2023-01-25T08:44:22.640Z,27.98
2023-01-25T08:49:22.976Z,30.40
2023-01-25T08:54:21.769Z,30.35
2023-01-25T08:59:20.498Z,32.10
2023-01-25T09:04:19.358Z,22.60
2023-01-25T09:09:19.707Z,25.25
2023-01-25T09:14:18.456Z,28.58
2023-01-25T09:19:18.545Z,21.83
2023-01-25T09:24:17.310Z,23.90
2023-01-25T09:29:17.485Z,24.50
2023-01-25T09:34:17.271Z,25.38
2023-01-25T09:39:16.125Z,20.33
2023-01-25T09:44:31.672Z,23.50
2023-01-25T09:49:46.962Z,21.27
2023-01-25T09:54:48.512Z,25.85
2023-01-25T09:59:51.376Z,23.02
2023-01-25T10:04:52.583Z,24.93
2023-01-25T10:10:01.846Z,24.98
2023-01-25T10:15:02.204Z,20.17
2023-01-25T10:20:21.439Z,26.48
2023-01-25T10:25:33.287Z,22.15
2023-01-25T10:30:41.624Z,22.27
2023-01-25T10:35:47.197Z,24.25
2023-01-25T10:40:53.894Z,26.55
2023-01-25T10:45:54.054Z,24.55
2023-01-25T10:50:54.931Z,20.05
2023-01-25T10:56:20.184Z,24.45
2023-01-25T11:01:32.647Z,28.55
2023-01-25T11:06:36.707Z,20.48
2023-01-25T11:11:40.655Z,24.75
2023-01-25T11:16:42.519Z,23.58
2023-01-25T11:21:53.660Z,19.25
2023-01-25T11:26:52.519Z,23.80
2023-01-25T11:31:57.863Z,19.60
2023-01-25T11:37:18.069Z,20.52
2023-01-25T11:42:29.476Z,22.95
2023-01-25T11:47:40.874Z,30.98
2023-01-25T11:52:56.656Z,24.27
2023-01-25T11:58:28.094Z,22.48
2023-01-25T12:04:12.372Z,22.77
2023-01-25T12:09:26.257Z,19.02
2023-01-25T12:19:48.296Z,24.00
2023-01-25T12:24:57.036Z,27.85
2023-01-25T12:30:00.205Z,16.75
2023-01-25T12:35:23.132Z,20.52
2023-01-25T12:40:38.365Z,25.58
2023-01-25T12:45:39.790Z,17.77
2023-01-25T12:50:46.639Z,24.25
2023-01-25T12:55:46.355Z,21.25
2023-01-25T13:00:53.996Z,19.42
2023-01-25T13:05:58.206Z,20.55
2023-01-25T13:11:09.402Z,17.42
2023-01-25T13:16:43.332Z,18.90
2023-01-25T13:21:47.474Z,19.83
2023-01-25T13:27:05.017Z,17.60
2023-01-25T13:32:05.994Z,19.77
2023-01-25T13:37:19.143Z,18.92
2023-01-25T13:42:24.075Z,22.00
2023-01-25T13:47:25.385Z,21.67
2023-01-25T13:52:27.130Z,23.30
2023-01-25T13:57:28.048Z,21.02
2023-01-25T14:02:27.878Z,25.63
2023-01-25T14:07:34.061Z,19.70
2023-01-25T14:12:37.748Z,23.50
2023-01-25T14:22:36.883Z,23.90
2023-01-25T14:27:36.925Z,23.65
2023-01-25T14:32:37.036Z,21.00
2023-01-25T14:37:43.758Z,21.65
2023-01-25T14:42:42.619Z,18.88
2023-01-25T14:47:45.267Z,25.38
2023-01-25T14:52:48.600Z,20.65
2023-01-25T14:57:49.405Z,25.58
2023-01-25T15:02:51.195Z,26.23
2023-01-25T15:07:53.134Z,20.42
2023-01-25T15:13:13.753Z,27.05
2023-01-25T15:18:47.217Z,25.92
2023-01-25T15:23:49.349Z,28.02
2023-01-25T15:28:50.491Z,26.73
2023-01-25T15:33:49.639Z,24.48
2023-01-25T15:38:49.869Z,21.33
2023-01-25T15:43:49.740Z,27.40
2023-01-25T15:48:50.595Z,27.40
2023-01-25T15:53:51.182Z,22.10
2023-01-25T15:58:53.074Z,23.30
2023-01-25T16:03:51.990Z,27.15
2023-01-25T16:08:52.255Z,25.88
2023-01-25T16:13:51.419Z,27.92
2023-01-25T16:18:50.693Z,33.63
2023-01-25T16:23:49.447Z,27.52
2023-01-25T16:28:49.577Z,26.67
2023-01-25T16:33:48.383Z,25.05
2023-01-25T16:38:47.646Z,23.95
2023-01-25T16:43:48.077Z,21.90
2023-01-25T16:48:50.077Z,27.83
2023-01-25T16:53:49.951Z,29.38
2023-01-25T16:58:49.699Z,28.73
2023-01-25T17:03:49.926Z,27.40
2023-01-25T17:08:49.520Z,20.85
2023-01-25T17:13:51.701Z,24.83
2023-01-25T17:18:55.552Z,24.20
2023-01-25T17:23:55.321Z,23.98
2023-01-25T17:28:56.560Z,25.58
2023-01-25T17:33:57.302Z,25.05
2023-01-25T17:38:56.194Z,22.40
2023-01-25T17:43:55.137Z,21.73
2023-01-25T17:48:54.437Z,27.15
2023-01-25T17:53:54.806Z,29.77
2023-01-25T17:58:54.001Z,25.67
2023-01-25T18:03:54.590Z,20.17
2023-01-25T18:08:57.203Z,23.25
2023-01-25T18:13:58.428Z,22.73
2023-01-25T18:18:59.289Z,21.85
2023-01-25T18:24:02.000Z,20.70
2023-01-25T18:29:21.238Z,23.63
2023-01-25T18:34:20.027Z,27.25
2023-01-25T18:39:20.242Z,22.08
2023-01-25T18:44:20.003Z,21.48
2023-01-25T18:49:18.965Z,28.02
2023-01-25T18:54:19.247Z,28.95
2023-01-25T18:59:18.088Z,28.45
2023-01-25T19:04:17.308Z,29.73
2023-01-25T19:09:16.158Z,22.25
2023-01-25T19:14:16.575Z,20.75
2023-01-25T19:19:16.038Z,22.80
2023-01-25T19:24:19.710Z,23.15
2023-01-25T19:29:20.061Z,23.67
2023-01-25T19:34:18.857Z,27.70
2023-01-25T19:39:19.558Z,27.75
2023-01-25T19:44:21.044Z,26.10
2023-01-25T19:49:20.928Z,30.08
2023-01-25T19:54:21.198Z,26.05
2023-01-25T19:59:25.276Z,25.98
2023-01-25T20:04:25.364Z,24.38
2023-01-25T20:09:28.154Z,29.65
2023-01-25T20:14:28.677Z,28.77
2023-01-25T20:19:28.237Z,25.65
2023-01-25T20:24:29.349Z,24.07
2023-01-25T20:29:31.132Z,23.17
2023-01-25T20:34:30.815Z,25.02
2023-01-25T20:39:33.657Z,28.25
2023-01-25T20:44:34.239Z,23.30
2023-01-25T20:49:33.557Z,25.55
2023-01-25T20:54:32.345Z,26.70
2023-01-25T20:59:31.131Z,27.20
2023-01-25T21:04:31.261Z,21.65
2023-01-25T21:09:30.593Z,22.15
2023-01-25T21:14:29.398Z,23.63
2023-01-25T21:19:28.247Z,17.60
2023-01-25T21:24:28.339Z,26.98
2023-01-25T21:29:27.159Z,26.25
2023-01-25T21:34:25.976Z,25.20
2023-01-25T21:39:24.736Z,25.77
2023-01-25T21:44:42.383Z,21.20
2023-01-25T21:50:00.604Z,24.48
2023-01-25T21:54:59.590Z,25.08
2023-01-25T21:59:59.856Z,25.38
2023-01-25T22:04:58.621Z,23.30
2023-01-25T22:09:57.400Z,22.23
2023-01-25T22:14:56.102Z,22.27
2023-01-25T22:19:56.353Z,28.15
2023-01-25T22:24:56.855Z,25.85
2023-01-25T22:29:55.747Z,24.58
2023-01-25T22:34:56.209Z,28.60
2023-01-25T22:39:58.548Z,25.95
2023-01-25T22:44:57.430Z,28.02
2023-01-25T22:49:57.693Z,31.30
2023-01-25T22:54:56.385Z,29.55
2023-01-25T22:59:55.212Z,29.55
2023-01-25T23:04:54.313Z,30.00
2023-01-25T23:09:54.513Z,31.17
2023-01-25T23:14:54.058Z,25.38
2023-01-25T23:19:52.958Z,27.02
2023-01-25T23:24:51.671Z,30.20
2023-01-25T23:29:52.377Z,30.17
2023-01-25T23:34:53.338Z,31.35
2023-01-25T23:39:52.165Z,28.60
2023-01-25T23:44:52.668Z,31.03
2023-01-25T23:49:51.489Z,28.88
2023-01-25T23:54:50.431Z,29.65
2023-01-25T23:59:49.288Z,29.38
